Time;durP1;ratioP1;P1;durP2;ratioP2;P2;SDS_P1;SDS_P2;PMS_P1;PMS_P2;Temp;Humidity;BMP_temperature;BMP_pressure;BME280_temperature;BME280_humidity;BME280_pressure;Samples;Min_cycle;Max_cycle;Signal;HPM_P1;HPM_P2
2023/10/09 00:02:14;;;;;;;16.63;8.48;;;;;;;;;;5065498;28;20087;-67
2023/10/09 00:04:45;;;;;;;15.05;8.43;;;;;;;;;;5065360;28;20068;-65
2023/10/09 00:07:11;;;;;;;16.35;9.05;;;;;;;;;;5069959;28;20043;-65
2023/10/09 00:09:46;;;;;;;15.13;8.35;;;;;;;;;;5066653;28;20550;-66
2023/10/09 00:12:22;;;;;;;18.92;9.13;;;;;;;;;;5074319;28;20063;-65
2023/10/09 00:14:50;;;;;;;13.90;8.27;;;;;;;;;;5066764;28;20488;-66
2023/10/09 00:17:19;;;;;;;14.82;8.93;;;;;;;;;;5068566;28;20060;-65
2023/10/09 00:19:49;;;;;;;13.40;8.95;;;;;;;;;;5064586;28;20154;-63
2023/10/09 00:25:09;;;;;;;12.90;8.45;;;;;;;;;;5065734;28;20464;-65
2023/10/09 00:27:36;;;;;;;13.65;8.77;;;;;;;;;;5067345;28;20590;-65
2023/10/09 00:30:06;;;;;;;16.02;8.77;;;;;;;;;;5065404;28;20930;-66
2023/10/09 00:32:33;;;;;;;15.00;8.75;;;;;;;;;;5065637;28;20570;-65
2023/10/09 00:35:35;;;;;;;13.88;8.55;;;;;;;;;;5069629;28;20063;-64
2023/10/09 00:37:45;;;;;;;13.82;8.30;;;;;;;;;;5068159;28;20313;-65
2023/10/09 00:40:23;;;;;;;13.88;8.23;;;;;;;;;;5067443;28;20523;-64
2023/10/09 00:42:49;;;;;;;13.23;8.38;;;;;;;;;;5066835;28;20096;-66
2023/10/09 00:45:27;;;;;;;18.77;8.15;;;;;;;;;;5071040;28;20565;-65
2023/10/09 00:47:58;;;;;;;18.30;8.60;;;;;;;;;;5064948;28;20184;-65
2023/10/09 00:50:35;;;;;;;11.50;8.25;;;;;;;;;;5069840;28;20045;-64
2023/10/09 00:53:03;;;;;;;13.38;8.13;;;;;;;;;;5068798;28;20041;-66
2023/10/09 00:55:44;;;;;;;12.38;7.88;;;;;;;;;;5071015;28;20581;-66
2023/10/09 00:58:15;;;;;;;15.77;8.20;;;;;;;;;;5066668;28;20036;-65
2023/10/09 01:05:58;;;;;;;10.98;7.57;;;;;;;;;;5070472;28;20060;-66
2023/10/09 01:11:18;;;;;;;11.05;7.90;;;;;;;;;;5072099;28;20588;-64
2023/10/09 01:16:22;;;;;;;12.63;7.47;;;;;;;;;;5069097;28;20133;-65
2023/10/09 01:18:56;;;;;;;13.02;8.32;;;;;;;;;;5062533;28;20049;-65
2023/10/09 01:21:26;;;;;;;13.10;7.82;;;;;;;;;;5061158;28;20056;-65
2023/10/09 01:26:39;;;;;;;15.30;8.38;;;;;;;;;;5067078;28;20567;-67
2023/10/09 01:29:14;;;;;;;14.55;7.82;;;;;;;;;;5071433;28;20457;-64
2023/10/09 01:32:00;;;;;;;11.57;7.85;;;;;;;;;;5064335;28;20056;-64
2023/10/09 01:34:49;;;;;;;11.02;6.93;;;;;;;;;;5066974;28;20085;-65
2023/10/09 01:37:22;;;;;;;16.98;7.68;;;;;;;;;;5065571;28;20062;-64
2023/10/09 01:39:52;;;;;;;13.75;7.45;;;;;;;;;;5061313;28;20053;-67
2023/10/09 01:42:45;;;;;;;11.45;7.47;;;;;;;;;;5067238;28;20558;-64
2023/10/09 01:45:15;;;;;;;13.07;7.60;;;;;;;;;;5066717;28;20058;-65
2023/10/09 01:47:50;;;;;;;12.52;7.80;;;;;;;;;;5061609;28;20060;-65
2023/10/09 01:50:24;;;;;;;13.98;7.97;;;;;;;;;;5066155;28;20580;-64
2023/10/09 01:52:53;;;;;;;12.95;7.28;;;;;;;;;;5066474;28;20608;-65
2023/10/09 01:55:39;;;;;;;11.50;7.63;;;;;;;;;;5066725;28;20131;-64
2023/10/09 01:58:16;;;;;;;12.07;7.45;;;;;;;;;;5066917;28;20044;-64
2023/10/09 02:00:49;;;;;;;12.38;7.65;;;;;;;;;;5067599;28;20118;-65
2023/10/09 02:03:15;;;;;;;12.23;7.63;;;;;;;;;;5063884;28;20045;-64
2023/10/09 02:05:42;;;;;;;11.60;8.00;;;;;;;;;;5061972;28;20044;-64
2023/10/09 02:08:11;;;;;;;13.00;7.70;;;;;;;;;;5066160;28;20061;-64
2023/10/09 02:10:39;;;;;;;12.68;7.93;;;;;;;;;;5069187;28;20068;-64
2023/10/09 02:13:07;;;;;;;12.68;7.53;;;;;;;;;;5070085;28;20488;-64
2023/10/09 02:20:47;;;;;;;12.95;7.88;;;;;;;;;;5064800;28;20491;-65
2023/10/09 02:23:17;;;;;;;16.05;7.88;;;;;;;;;;5066065;28;20552;-65
2023/10/09 02:25:43;;;;;;;13.65;8.27;;;;;;;;;;5064134;28;20052;-62
2023/10/09 02:28:17;;;;;;;13.88;8.10;;;;;;;;;;5063419;28;20057;-63
2023/10/09 02:30:47;;;;;;;11.63;7.93;;;;;;;;;;5065912;28;20135;-63
2023/10/09 02:33:30;;;;;;;14.70;8.07;;;;;;;;;;5060658;28;20056;-66
2023/10/09 02:36:02;;;;;;;14.30;8.43;;;;;;;;;;5070641;28;20131;-63
2023/10/09 02:38:31;;;;;;;15.05;8.25;;;;;;;;;;5064842;28;20074;-67
2023/10/09 02:43:50;;;;;;;12.43;8.30;;;;;;;;;;5068831;28;20056;-64
2023/10/09 02:48:52;;;;;;;13.38;7.57;;;;;;;;;;5064790;28;20052;-65
2023/10/09 02:54:26;;;;;;;11.55;7.20;;;;;;;;;;5068359;28;20127;-64
2023/10/09 02:57:08;;;;;;;13.48;7.78;;;;;;;;;;5065098;28;20052;-64
2023/10/09 02:59:37;;;;;;;13.73;7.03;;;;;;;;;;5071038;28;20041;-65
2023/10/09 03:02:03;;;;;;;11.82;6.97;;;;;;;;;;5068327;28;20041;-64
2023/10/09 03:04:29;;;;;;;12.90;7.35;;;;;;;;;;5071015;28;20507;-65
2023/10/09 03:06:57;;;;;;;12.50;7.55;;;;;;;;;;5066567;28;20060;-63
2023/10/09 03:09:27;;;;;;;14.02;7.72;;;;;;;;;;5065818;28;20041;-64
2023/10/09 03:11:55;;;;;;;11.43;7.78;;;;;;;;;;5069721;28;20518;-63
2023/10/09 03:14:26;;;;;;;13.75;7.38;;;;;;;;;;5066537;28;20106;-64
2023/10/09 03:16:54;;;;;;;10.82;7.70;;;;;;;;;;5070204;28;20643;-64
2023/10/09 03:19:20;;;;;;;12.77;6.85;;;;;;;;;;5072405;28;20044;-66
2023/10/09 03:21:46;;;;;;;12.65;7.47;;;;;;;;;;5073852;28;20056;-64
2023/10/09 03:24:12;;;;;;;11.85;7.40;;;;;;;;;;5074113;28;20041;-65
2023/10/09 03:26:38;;;;;;;13.70;7.50;;;;;;;;;;5072899;28;20059;-69
2023/10/09 03:29:09;;;;;;;20.02;8.23;;;;;;;;;;5072931;28;20499;-65
2023/10/09 03:31:36;;;;;;;10.35;7.20;;;;;;;;;;5071937;28;20087;-63
2023/10/09 03:34:03;;;;;;;12.55;7.72;;;;;;;;;;5069721;28;20048;-64
2023/10/09 03:36:30;;;;;;;11.93;7.70;;;;;;;;;;5070182;28;20044;-66
2023/10/09 03:38:59;;;;;;;11.13;7.15;;;;;;;;;;5072442;28;20052;-63
2023/10/09 03:41:29;;;;;;;18.05;7.63;;;;;;;;;;5073761;28;20048;-63
2023/10/09 03:43:55;;;;;;;12.45;6.75;;;;;;;;;;5069572;28;20056;-63
2023/10/09 03:47:01;;;;;;;10.65;7.28;;;;;;;;;;5069592;28;20242;-65
2023/10/09 03:50:43;;;;;;;11.90;7.47;;;;;;;;;;5070897;28;20528;-65
2023/10/09 03:54:22;;;;;;;9.38;7.05;;;;;;;;;;5070955;28;20064;-66
2023/10/09 03:58:03;;;;;;;13.88;7.63;;;;;;;;;;5066172;28;20130;-63
2023/10/09 04:01:44;;;;;;;9.25;7.43;;;;;;;;;;5065560;28;20033;-63
2023/10/09 04:05:24;;;;;;;12.70;7.75;;;;;;;;;;5067997;28;20063;-65
2023/10/09 04:12:39;;;;;;;13.07;7.40;;;;;;;;;;5067203;28;20048;-63
2023/10/09 04:23:36;;;;;;;11.80;6.65;;;;;;;;;;5069034;28;20060;-65
2023/10/09 04:27:17;;;;;;;11.95;7.80;;;;;;;;;;5064624;28;20040;-63
2023/10/09 04:31:02;;;;;;;11.00;7.70;;;;;;;;;;5067211;28;20056;-65
2023/10/09 04:34:48;;;;;;;13.95;8.07;;;;;;;;;;5062198;28;20328;-64
2023/10/09 04:38:19;;;;;;;10.05;7.15;;;;;;;;;;5067551;28;20040;-63
2023/10/09 04:42:19;;;;;;;15.90;7.38;;;;;;;;;;5066359;28;20044;-64
2023/10/09 04:49:49;;;;;;;11.48;7.15;;;;;;;;;;5044564;28;20479;-65
2023/10/09 04:56:51;;;;;;;11.35;7.30;;;;;;;;;;5065442;28;20037;-64
2023/10/09 05:03:45;;;;;;;15.00;7.43;;;;;;;;;;5066822;28;20411;-64
2023/10/09 05:07:49;;;;;;;13.65;7.43;;;;;;;;;;5063961;28;20052;-64
2023/10/09 05:11:15;;;;;;;11.55;7.05;;;;;;;;;;5074172;28;20040;-64
2023/10/09 05:15:06;;;;;;;15.48;7.50;;;;;;;;;;5065213;28;20060;-64
2023/10/09 05:18:27;;;;;;;15.40;7.50;;;;;;;;;;5072584;28;20052;-64
2023/10/09 05:27:17;;;;;;;12.82;7.20;;;;;;;;;;5044780;28;21678;-63
2023/10/09 05:29:59;;;;;;;15.80;8.93;;;;;;;;;;5067442;28;20072;-63
2023/10/09 05:32:34;;;;;;;18.48;9.10;;;;;;;;;;5067844;28;20041;-64
2023/10/09 05:37:34;;;;;;;21.38;12.57;;;;;;;;;;5067650;28;20044;-64
2023/10/09 05:47:54;;;;;;;16.77;9.55;;;;;;;;;;5064865;28;20515;-63
2023/10/09 06:06:32;;;;;;;11.07;7.43;;;;;;;;;;5065466;28;20064;-64
2023/10/09 06:09:28;;;;;;;12.38;7.18;;;;;;;;;;5067527;28;20047;-63
2023/10/09 06:12:24;;;;;;;14.45;7.63;;;;;;;;;;5062139;28;20076;-65
2023/10/09 06:19:44;;;;;;;14.60;7.45;;;;;;;;;;5066222;28;20126;-70
2023/10/09 06:24:59;;;;;;;11.60;7.97;;;;;;;;;;5054569;28;20048;-67
2023/10/09 06:33:04;;;;;;;13.25;7.50;;;;;;;;;;5061459;28;20147;-67
2023/10/09 06:35:35;;;;;;;10.50;7.45;;;;;;;;;;5063132;28;20080;-66
2023/10/09 06:45:58;;;;;;;12.40;7.55;;;;;;;;;;5058678;28;20045;-64
2023/10/09 06:51:42;;;;;;;12.70;7.85;;;;;;;;;;5061800;28;20056;-65
2023/10/09 06:55:33;;;;;;;9.98;7.05;;;;;;;;;;5066398;28;20049;-69
2023/10/09 06:58:55;;;;;;;10.88;7.47;;;;;;;;;;5061499;28;20048;-64
2023/10/09 07:02:25;;;;;;;12.85;7.85;;;;;;;;;;5063764;28;20206;-64
2023/10/09 07:06:04;;;;;;;12.32;7.40;;;;;;;;;;5052414;28;20207;-67
2023/10/09 07:14:08;;;;;;;13.15;7.28;;;;;;;;;;5060274;28;20044;-65
2023/10/09 07:16:57;;;;;;;10.38;7.28;;;;;;;;;;5066157;28;20066;-65
2023/10/09 07:25:02;;;;;;;11.20;7.10;;;;;;;;;;5061837;28;20048;-68
2023/10/09 07:27:48;;;;;;;16.55;8.43;;;;;;;;;;5062645;28;20048;-64
2023/10/09 07:38:21;;;;;;;13.13;7.53;;;;;;;;;;5062471;28;20048;-67
2023/10/09 07:43:39;;;;;;;14.53;7.60;;;;;;;;;;5064330;28;19936;-66
2023/10/09 07:48:55;;;;;;;15.18;8.55;;;;;;;;;;5064874;28;20051;-67
2023/10/09 07:51:31;;;;;;;18.95;10.00;;;;;;;;;;5067445;28;20123;-66
2023/10/09 07:54:08;;;;;;;14.48;8.55;;;;;;;;;;5065316;28;20124;-66
2023/10/09 07:56:41;;;;;;;12.23;8.00;;;;;;;;;;5064762;28;20044;-66
2023/10/09 07:59:11;;;;;;;11.55;7.88;;;;;;;;;;5064465;28;20040;-66
2023/10/09 08:02:31;;;;;;;12.13;7.85;;;;;;;;;;5060165;28;20064;-67
2023/10/09 08:05:44;;;;;;;16.45;7.47;;;;;;;;;;5063854;28;20040;-66
2023/10/09 08:09:38;;;;;;;13.63;6.93;;;;;;;;;;5063790;28;20052;-67
2023/10/09 08:12:58;;;;;;;12.63;6.75;;;;;;;;;;5062403;28;20214;-67
2023/10/09 08:15:51;;;;;;;10.95;6.63;;;;;;;;;;5060253;28;20056;-68
2023/10/09 08:18:27;;;;;;;10.13;6.70;;;;;;;;;;5061047;28;20052;-65
2023/10/09 08:24:32;;;;;;;11.80;6.50;;;;;;;;;;5061620;28;20075;-67
2023/10/09 08:27:46;;;;;;;10.40;7.68;;;;;;;;;;5059940;28;20043;-66
2023/10/09 08:31:02;;;;;;;12.02;6.85;;;;;;;;;;5054717;28;20123;-66
2023/10/09 08:33:43;;;;;;;14.23;6.75;;;;;;;;;;5064756;28;20408;-63
2023/10/09 08:36:14;;;;;;;9.05;6.15;;;;;;;;;;5070109;28;20075;-69
2023/10/09 08:38:44;;;;;;;11.18;6.30;;;;;;;;;;5071098;28;20071;-67
2023/10/09 08:41:17;;;;;;;13.30;6.43;;;;;;;;;;5065408;28;20407;-68
2023/10/09 08:43:50;;;;;;;10.97;6.43;;;;;;;;;;5063651;28;20037;-70
2023/10/09 08:46:28;;;;;;;13.10;6.78;;;;;;;;;;5066125;28;20064;-70
2023/10/09 08:48:59;;;;;;;10.48;6.28;;;;;;;;;;5067436;28;20086;-70
2023/10/09 08:51:26;;;;;;;13.63;6.78;;;;;;;;;;5062956;28;20053;-68
2023/10/09 08:53:54;;;;;;;9.18;6.00;;;;;;;;;;5066487;28;20045;-69
2023/10/09 08:56:23;;;;;;;13.43;6.70;;;;;;;;;;5065156;28;20049;-69
2023/10/09 08:58:54;;;;;;;11.88;6.50;;;;;;;;;;5063528;28;20040;-69
2023/10/09 09:01:24;;;;;;;9.15;6.38;;;;;;;;;;5068616;28;20492;-70
2023/10/09 09:03:56;;;;;;;8.80;5.95;;;;;;;;;;5066747;28;20598;-70
2023/10/09 09:06:23;;;;;;;12.13;7.00;;;;;;;;;;5060732;28;20067;-70
2023/10/09 09:08:59;;;;;;;13.10;6.50;;;;;;;;;;5067890;28;20110;-66
2023/10/09 09:11:30;;;;;;;;;;;;;;;;;;5063181;28;20462;-66
2023/10/09 09:15:19;;;;;;;11.82;6.40;;;;;;;;;;5057642;28;19924;-66
2023/10/09 09:22:10;;;;;;;11.88;6.13;;;;;;;;;;5068039;28;20041;-66
2023/10/09 09:24:39;;;;;;;13.02;6.25;;;;;;;;;;5070930;28;20052;-64
2023/10/09 09:27:20;;;;;;;9.48;5.47;;;;;;;;;;5061871;28;20044;-65
2023/10/09 09:29:54;;;;;;;9.93;5.93;;;;;;;;;;5058044;28;20492;-66
2023/10/09 09:32:35;;;;;;;9.85;5.65;;;;;;;;;;5066448;28;20098;-67
2023/10/09 09:35:04;;;;;;;8.40;5.28;;;;;;;;;;5068792;28;20110;-66
2023/10/09 09:37:39;;;;;;;10.73;5.40;;;;;;;;;;5055797;28;20316;-65
2023/10/09 09:42:51;;;;;;;10.98;5.35;;;;;;;;;;5067373;28;20048;-65
2023/10/09 09:45:24;;;;;;;11.43;5.53;;;;;;;;;;5069535;28;20344;-65
2023/10/09 09:47:52;;;;;;;7.85;5.85;;;;;;;;;;5068503;28;20105;-65
2023/10/09 09:50:28;;;;;;;11.25;5.55;;;;;;;;;;5070576;28;20048;-65
2023/10/09 09:52:54;;;;;;;11.20;4.97;;;;;;;;;;5069115;28;20108;-71
2023/10/09 09:55:30;;;;;;;12.82;5.50;;;;;;;;;;5065143;28;20059;-67
2023/10/09 09:57:57;;;;;;;10.48;5.25;;;;;;;;;;5071736;28;20411;-64
2023/10/09 10:00:42;;;;;;;9.18;5.40;;;;;;;;;;5059909;28;20052;-66
2023/10/09 10:03:33;;;;;;;10.13;5.00;;;;;;;;;;5077346;28;20106;-66
2023/10/09 10:06:05;;;;;;;11.68;5.25;;;;;;;;;;5068070;28;20049;-66
2023/10/09 10:08:32;;;;;;;10.05;5.30;;;;;;;;;;5067561;28;20496;-63
2023/10/09 10:11:14;;;;;;;8.32;6.05;;;;;;;;;;5062648;28;20051;-67
2023/10/09 10:13:46;;;;;;;13.27;5.90;;;;;;;;;;5055065;28;20052;-68
2023/10/09 10:16:19;;;;;;;17.42;6.32;;;;;;;;;;5065139;28;20133;-68
2023/10/09 10:18:59;;;;;;;11.00;5.63;;;;;;;;;;5053507;28;20067;-66
2023/10/09 10:24:11;;;;;;;7.60;5.70;;;;;;;;;;5073402;28;20049;-67
2023/10/09 10:26:37;;;;;;;10.45;5.93;;;;;;;;;;5061387;28;20067;-67
2023/10/09 10:29:23;;;;;;;9.98;5.32;;;;;;;;;;5061781;28;20036;-68
2023/10/09 10:32:11;;;;;;;12.52;5.63;;;;;;;;;;5064471;28;20117;-66
2023/10/09 10:34:57;;;;;;;13.60;5.43;;;;;;;;;;5068760;28;20071;-68
2023/10/09 10:37:51;;;;;;;10.60;4.68;;;;;;;;;;5055672;28;20779;-66
2023/10/09 10:40:45;;;;;;;9.47;4.83;;;;;;;;;;5066233;28;20522;-65
2023/10/09 10:46:24;;;;;;;9.45;5.00;;;;;;;;;;5065299;28;19924;-65
2023/10/09 10:48:59;;;;;;;9.60;4.70;;;;;;;;;;5059964;28;20124;-63
2023/10/09 10:51:39;;;;;;;7.18;4.90;;;;;;;;;;5064302;28;20040;-68
2023/10/09 10:57:53;;;;;;;10.63;4.88;;;;;;;;;;5055685;28;20087;-65
2023/10/09 11:01:17;;;;;;;9.57;4.97;;;;;;;;;;5049607;28;20048;-67
2023/10/09 11:05:14;;;;;;;10.88;4.82;;;;;;;;;;5051770;28;20423;-65
2023/10/09 11:08:38;;;;;;;8.32;4.38;;;;;;;;;;5049727;28;20056;-65
2023/10/09 11:12:22;;;;;;;11.93;4.40;;;;;;;;;;5054918;28;20194;-65
2023/10/09 11:16:14;;;;;;;7.88;4.20;;;;;;;;;;5055445;28;20048;-70
2023/10/09 11:19:56;;;;;;;7.68;4.55;;;;;;;;;;5054363;28;20040;-67
2023/10/09 11:23:14;;;;;;;7.60;4.70;;;;;;;;;;5055452;28;20052;-66
2023/10/09 11:25:51;;;;;;;8.75;4.18;;;;;;;;;;5056991;28;20056;-65
2023/10/09 11:28:31;;;;;;;6.30;4.43;;;;;;;;;;5060395;28;20036;-65
2023/10/09 11:31:14;;;;;;;7.32;4.10;;;;;;;;;;5044943;28;20072;-65
2023/10/09 11:33:51;;;;;;;9.57;4.05;;;;;;;;;;5047103;28;20052;-65
2023/10/09 11:36:34;;;;;;;8.63;4.72;;;;;;;;;;5043894;28;20110;-65
2023/10/09 11:39:31;;;;;;;10.55;5.32;;;;;;;;;;5052697;28;20045;-66
2023/10/09 11:41:49;;;;;;;11.65;4.13;;;;;;;;;;5057675;28;20072;-66
2023/10/09 11:44:33;;;;;;;6.50;3.83;;;;;;;;;;5056377;28;20045;-65
2023/10/09 11:52:35;;;;;;;5.50;3.38;;;;;;;;;;5057522;28;20475;-65
2023/10/09 11:55:02;;;;;;;10.20;3.80;;;;;;;;;;5053811;28;20048;-67
2023/10/09 11:57:33;;;;;;;6.13;3.67;;;;;;;;;;5052694;28;20153;-65
2023/10/09 12:00:24;;;;;;;7.50;3.90;;;;;;;;;;5055467;28;20102;-66
2023/10/09 12:02:50;;;;;;;9.18;3.75;;;;;;;;;;5057247;28;20049;-67
2023/10/09 12:05:20;;;;;;;7.60;3.90;;;;;;;;;;5056353;28;20063;-66
2023/10/09 12:07:54;;;;;;;7.72;3.80;;;;;;;;;;5049643;28;20066;-65
2023/10/09 12:10:25;;;;;;;12.10;4.10;;;;;;;;;;5055452;28;20044;-64
2023/10/09 12:12:52;;;;;;;7.93;3.80;;;;;;;;;;5052930;28;20067;-69
2023/10/09 12:15:19;;;;;;;7.00;3.30;;;;;;;;;;5057158;28;20135;-64
2023/10/09 12:17:46;;;;;;;5.28;3.20;;;;;;;;;;5047338;28;20155;-67
2023/10/09 12:20:34;;;;;;;7.35;3.50;;;;;;;;;;5049920;28;20545;-65
2023/10/09 12:23:04;;;;;;;6.45;3.42;;;;;;;;;;5053388;28;20144;-66
2023/10/09 12:25:51;;;;;;;4.75;3.25;;;;;;;;;;5056913;28;20141;-65
2023/10/09 12:28:20;;;;;;;4.43;3.03;;;;;;;;;;5054705;28;20036;-66
2023/10/09 12:30:50;;;;;;;6.18;3.40;;;;;;;;;;5051751;28;20049;-65
2023/10/09 12:33:18;;;;;;;8.93;3.70;;;;;;;;;;5060920;28;20053;-68
2023/10/09 12:35:45;;;;;;;7.28;3.50;;;;;;;;;;5053167;28;20353;-67
2023/10/09 12:38:13;;;;;;;6.35;3.58;;;;;;;;;;5055207;28;20055;-67
2023/10/09 12:40:54;;;;;;;5.03;3.28;;;;;;;;;;5054029;28;20048;-65
2023/10/09 12:43:22;;;;;;;7.70;3.97;;;;;;;;;;5051886;28;20511;-65
2023/10/09 12:45:48;;;;;;;6.32;3.58;;;;;;;;;;5052818;28;20151;-63
2023/10/09 12:48:14;;;;;;;4.82;3.35;;;;;;;;;;5050980;28;20048;-64
2023/10/09 12:50:44;;;;;;;6.55;3.95;;;;;;;;;;5056070;28;20111;-66
2023/10/09 12:53:11;;;;;;;6.82;3.67;;;;;;;;;;5052485;28;20071;-65
2023/10/09 12:55:41;;;;;;;8.70;3.50;;;;;;;;;;5048171;28;20171;-67
2023/10/09 12:58:15;;;;;;;6.15;3.72;;;;;;;;;;5059214;28;20052;-65
2023/10/09 13:00:48;;;;;;;5.55;3.28;;;;;;;;;;5053542;28;20114;-66
2023/10/09 13:03:17;;;;;;;5.38;3.20;;;;;;;;;;5056984;28;20044;-65
2023/10/09 13:05:58;;;;;;;4.85;3.40;;;;;;;;;;5056708;28;20049;-67
2023/10/09 13:08:35;;;;;;;6.68;3.30;;;;;;;;;;5054951;28;20052;-64
2023/10/09 13:11:12;;;;;;;8.55;3.15;;;;;;;;;;5056853;28;20044;-65
2023/10/09 13:13:42;;;;;;;6.70;3.63;;;;;;;;;;5061314;28;20064;-67
2023/10/09 13:16:22;;;;;;;8.15;4.20;;;;;;;;;;5057667;28;20088;-66
2023/10/09 13:18:50;;;;;;;4.53;3.00;;;;;;;;;;5057581;28;20048;-65
2023/10/09 13:21:20;;;;;;;6.45;3.40;;;;;;;;;;5055724;28;20056;-66
2023/10/09 13:23:47;;;;;;;7.13;3.60;;;;;;;;;;5055630;28;20036;-67
2023/10/09 13:26:29;;;;;;;8.40;4.10;;;;;;;;;;5056774;28;20131;-64
2023/10/09 13:28:57;;;;;;;4.50;3.25;;;;;;;;;;5053981;28;20086;-67
2023/10/09 13:31:26;;;;;;;6.20;3.67;;;;;;;;;;5059685;28;20442;-67
2023/10/09 13:33:54;;;;;;;8.95;4.13;;;;;;;;;;5055920;28;20303;-65
2023/10/09 13:36:34;;;;;;;6.43;3.38;;;;;;;;;;5054256;28;20068;-67
2023/10/09 13:42:01;;;;;;;9.10;3.80;;;;;;;;;;5057406;28;20052;-66
2023/10/09 13:44:31;;;;;;;7.70;3.53;;;;;;;;;;5052190;28;20059;-67
2023/10/09 13:46:59;;;;;;;5.40;3.25;;;;;;;;;;5065741;28;20062;-65
2023/10/09 13:49:31;;;;;;;9.55;4.38;;;;;;;;;;5063490;28;20064;-68
2023/10/09 13:52:06;;;;;;;8.35;5.20;;;;;;;;;;5060049;28;20147;-67
2023/10/09 13:57:10;;;;;;;5.63;3.50;;;;;;;;;;5062688;28;20052;-71
2023/10/09 13:59:42;;;;;;;5.85;3.67;;;;;;;;;;5065905;28;20405;-65
2023/10/09 14:02:17;;;;;;;6.88;3.50;;;;;;;;;;5069591;28;20044;-64
2023/10/09 14:04:44;;;;;;;5.88;3.22;;;;;;;;;;5065461;28;20049;-67
2023/10/09 14:07:10;;;;;;;7.95;3.67;;;;;;;;;;5075744;28;20048;-68
2023/10/09 14:09:44;;;;;;;6.03;3.17;;;;;;;;;;5064178;28;20467;-64
2023/10/09 14:12:11;;;;;;;8.07;3.50;;;;;;;;;;5062985;28;20039;-67
2023/10/09 14:14:48;;;;;;;7.28;3.70;;;;;;;;;;5064791;28;20081;-67
2023/10/09 14:17:28;;;;;;;5.38;3.10;;;;;;;;;;5066814;28;20692;-65
2023/10/09 14:20:00;;;;;;;4.93;3.00;;;;;;;;;;5063388;28;20087;-65
2023/10/09 14:22:26;;;;;;;6.38;3.30;;;;;;;;;;5076067;28;20041;-64
2023/10/09 14:24:59;;;;;;;8.40;3.78;;;;;;;;;;5073601;28;20052;-65
2023/10/09 14:27:29;;;;;;;6.70;2.88;;;;;;;;;;5070709;28;20389;-65
2023/10/09 14:29:59;;;;;;;7.80;3.30;;;;;;;;;;5069019;28;20081;-64
2023/10/09 14:32:33;;;;;;;6.20;3.20;;;;;;;;;;5065781;28;20058;-65
2023/10/09 14:35:12;;;;;;;9.55;3.30;;;;;;;;;;5064448;28;20048;-65
2023/10/09 14:37:39;;;;;;;7.45;3.08;;;;;;;;;;5072985;28;20052;-65
2023/10/09 14:40:12;;;;;;;6.30;3.25;;;;;;;;;;5069951;28;20138;-69
2023/10/09 14:42:43;;;;;;;7.32;2.92;;;;;;;;;;5070489;28;20052;-64
2023/10/09 14:45:15;;;;;;;4.97;3.15;;;;;;;;;;5059606;28;20397;-65
2023/10/09 14:47:42;;;;;;;4.70;2.95;;;;;;;;;;5073297;28;20079;-65
2023/10/09 14:50:09;;;;;;;5.45;3.20;;;;;;;;;;5066169;28;20048;-66
2023/10/09 14:52:38;;;;;;;5.85;3.17;;;;;;;;;;5072490;28;20052;-66
2023/10/09 14:55:28;;;;;;;4.85;2.90;;;;;;;;;;5070462;28;20037;-64
2023/10/09 14:57:55;;;;;;;6.50;3.10;;;;;;;;;;5061365;28;20037;-65
2023/10/09 15:00:23;;;;;;;4.97;2.90;;;;;;;;;;5064402;28;20048;-65
2023/10/09 15:02:52;;;;;;;5.80;2.90;;;;;;;;;;5071344;28;20061;-68
2023/10/09 15:05:22;;;;;;;5.05;3.10;;;;;;;;;;5066825;28;20133;-64
2023/10/09 15:07:48;;;;;;;7.38;3.20;;;;;;;;;;5070496;28;20056;-68
2023/10/09 15:10:15;;;;;;;3.83;2.63;;;;;;;;;;5070762;28;20052;-66
2023/10/09 15:12:46;;;;;;;6.88;3.08;;;;;;;;;;5067782;28;20104;-66
2023/10/09 15:15:16;;;;;;;5.18;2.90;;;;;;;;;;5070148;28;20470;-65
2023/10/09 15:17:44;;;;;;;5.70;3.10;;;;;;;;;;5068206;28;20205;-63
2023/10/09 15:20:14;;;;;;;5.03;3.25;;;;;;;;;;5071527;28;20045;-66
2023/10/09 15:22:44;;;;;;;4.82;3.03;;;;;;;;;;5067636;28;20041;-67
2023/10/09 15:25:14;;;;;;;6.88;3.00;;;;;;;;;;5064350;28;20055;-67
2023/10/09 15:27:41;;;;;;;5.07;3.00;;;;;;;;;;5051575;28;20049;-67
2023/10/09 15:30:13;;;;;;;5.15;2.92;;;;;;;;;;5058649;28;20052;-66
2023/10/09 15:32:41;;;;;;;5.78;3.20;;;;;;;;;;5059159;28;20048;-67
2023/10/09 15:35:09;;;;;;;6.32;3.10;;;;;;;;;;5067604;28;20052;-66
2023/10/09 15:37:36;;;;;;;7.65;2.97;;;;;;;;;;5071693;28;20127;-66
2023/10/09 15:40:13;;;;;;;7.47;3.30;;;;;;;;;;5079262;28;20048;-67
2023/10/09 15:42:49;;;;;;;5.13;2.90;;;;;;;;;;5065204;28;20043;-65
2023/10/09 15:45:21;;;;;;;4.95;3.15;;;;;;;;;;5068657;28;20057;-65
2023/10/09 15:47:48;;;;;;;6.50;3.28;;;;;;;;;;5073620;28;20049;-66
2023/10/09 15:50:14;;;;;;;4.68;3.25;;;;;;;;;;5070452;28;20036;-67
2023/10/09 15:52:40;;;;;;;6.25;3.75;;;;;;;;;;5068794;28;20182;-65
2023/10/09 15:55:13;;;;;;;5.57;3.03;;;;;;;;;;5068400;28;20056;-65
2023/10/09 15:57:42;;;;;;;6.53;3.60;;;;;;;;;;5062071;28;20056;-67
2023/10/09 16:00:17;;;;;;;10.63;3.63;;;;;;;;;;5066636;28;20051;-65
2023/10/09 16:02:45;;;;;;;7.13;3.67;;;;;;;;;;5070000;28;20044;-65
2023/10/09 16:05:11;;;;;;;4.28;3.05;;;;;;;;;;5064153;28;20057;-67
2023/10/09 16:07:42;;;;;;;6.60;3.40;;;;;;;;;;5066826;28;20048;-66
2023/10/09 16:10:09;;;;;;;6.38;3.30;;;;;;;;;;5063603;28;20046;-66
2023/10/09 16:12:41;;;;;;;6.55;3.58;;;;;;;;;;5067554;28;20056;-65
2023/10/09 16:15:08;;;;;;;7.87;3.40;;;;;;;;;;5067037;28;20037;-64
2023/10/09 16:17:35;;;;;;;6.40;3.17;;;;;;;;;;5083302;28;20301;-66
2023/10/09 16:20:02;;;;;;;5.25;3.00;;;;;;;;;;5066158;28;21335;-66
2023/10/09 16:22:28;;;;;;;6.97;3.20;;;;;;;;;;5069834;28;20047;-64
2023/10/09 16:25:01;;;;;;;7.68;2.90;;;;;;;;;;5072326;28;20074;-66
2023/10/09 16:27:27;;;;;;;7.00;2.75;;;;;;;;;;5068124;28;20044;-65
2023/10/09 16:29:57;;;;;;;5.28;2.88;;;;;;;;;;5068540;28;20056;-65
2023/10/09 16:32:23;;;;;;;4.00;2.85;;;;;;;;;;5066437;28;20067;-66
2023/10/09 16:34:50;;;;;;;5.20;3.10;;;;;;;;;;5068025;28;20048;-66
2023/10/09 16:37:22;;;;;;;5.55;2.67;;;;;;;;;;5069821;28;20040;-66
2023/10/09 16:39:48;;;;;;;5.93;3.08;;;;;;;;;;5068652;28;20040;-66
2023/10/09 16:42:17;;;;;;;6.07;3.30;;;;;;;;;;5065617;28;20048;-67
2023/10/09 16:44:46;;;;;;;6.13;3.15;;;;;;;;;;5070184;28;20056;-66
2023/10/09 16:47:11;;;;;;;6.80;3.35;;;;;;;;;;5059610;28;20059;-68
2023/10/09 16:49:38;;;;;;;5.97;3.22;;;;;;;;;;5069360;28;20093;-64
2023/10/09 16:52:11;;;;;;;7.72;3.35;;;;;;;;;;5068941;28;20143;-67
2023/10/09 16:54:38;;;;;;;9.38;3.80;;;;;;;;;;5067867;28;20500;-64
2023/10/09 16:57:08;;;;;;;5.85;3.25;;;;;;;;;;5060930;28;20458;-64
2023/10/09 16:59:38;;;;;;;7.68;3.60;;;;;;;;;;5065716;28;20051;-66
2023/10/09 17:02:07;;;;;;;7.65;3.80;;;;;;;;;;5064556;28;20051;-67
2023/10/09 17:04:34;;;;;;;10.65;3.40;;;;;;;;;;5067311;28;20048;-67
2023/10/09 17:07:44;;;;;;;8.27;3.85;;;;;;;;;;5064289;28;20052;-65
2023/10/09 17:11:22;;;;;;;6.10;3.95;;;;;;;;;;5073078;28;20051;-66
2023/10/09 17:15:01;;;;;;;8.52;3.92;;;;;;;;;;5069418;28;20056;-66
2023/10/09 17:18:44;;;;;;;5.30;3.25;;;;;;;;;;5059423;28;20404;-66
2023/10/09 17:22:24;;;;;;;9.75;3.83;;;;;;;;;;5069300;28;20052;-70
2023/10/09 17:26:10;;;;;;;9.38;4.25;;;;;;;;;;5068259;28;20055;-64
2023/10/09 17:29:47;;;;;;;6.80;3.90;;;;;;;;;;5064130;28;20066;-66
2023/10/09 17:33:30;;;;;;;9.10;4.15;;;;;;;;;;5062863;28;20055;-67
2023/10/09 17:37:13;;;;;;;6.32;4.18;;;;;;;;;;5061373;28;20049;-68
2023/10/09 17:40:53;;;;;;;8.38;4.05;;;;;;;;;;5063495;28;20098;-66
2023/10/09 17:44:38;;;;;;;10.73;4.35;;;;;;;;;;5063511;28;20045;-67
2023/10/09 17:48:18;;;;;;;7.82;4.72;;;;;;;;;;5053145;28;20464;-66
2023/10/09 17:51:59;;;;;;;6.53;4.30;;;;;;;;;;5053210;28;20051;-67
2023/10/09 17:55:38;;;;;;;6.47;4.15;;;;;;;;;;5044199;28;20127;-67
2023/10/09 17:59:18;;;;;;;7.32;4.00;;;;;;;;;;5055537;28;21139;-67
2023/10/09 18:02:59;;;;;;;7.47;4.70;;;;;;;;;;5048372;28;21253;-68
2023/10/09 18:06:42;;;;;;;11.70;4.95;;;;;;;;;;5056146;28;20076;-66
2023/10/09 18:10:22;;;;;;;10.43;4.93;;;;;;;;;;5051017;28;20756;-68
2023/10/09 18:14:00;;;;;;;7.47;4.45;;;;;;;;;;5047104;28;20076;-71
2023/10/09 18:17:42;;;;;;;6.28;4.18;;;;;;;;;;5047042;28;20119;-69
2023/10/09 18:21:24;;;;;;;9.60;4.18;;;;;;;;;;5052339;28;20044;-65
2023/10/09 18:25:04;;;;;;;7.97;4.63;;;;;;;;;;5040678;28;20475;-67
2023/10/09 18:28:45;;;;;;;7.75;4.65;;;;;;;;;;5053872;28;20049;-67
2023/10/09 18:32:25;;;;;;;11.82;4.95;;;;;;;;;;5046552;28;20095;-67
2023/10/09 18:36:21;;;;;;;9.70;4.60;;;;;;;;;;5046020;28;20049;-68
2023/10/09 18:40:05;;;;;;;11.13;4.88;;;;;;;;;;5046422;28;20053;-68
2023/10/09 18:43:41;;;;;;;6.95;4.45;;;;;;;;;;5044487;28;20130;-68
2023/10/09 18:47:22;;;;;;;6.30;4.38;;;;;;;;;;5044502;28;20445;-67
2023/10/09 18:51:02;;;;;;;11.90;5.20;;;;;;;;;;5051800;28;20041;-66
2023/10/09 18:54:42;;;;;;;7.00;4.65;;;;;;;;;;5048952;28;20059;-67
2023/10/09 18:58:23;;;;;;;8.07;4.45;;;;;;;;;;5052922;28;20086;-64
2023/10/09 19:02:04;;;;;;;9.43;5.07;;;;;;;;;;5049787;28;20041;-66
2023/10/09 19:05:47;;;;;;;6.97;4.70;;;;;;;;;;5050222;28;20059;-65
2023/10/09 19:09:27;;;;;;;9.52;4.53;;;;;;;;;;5043169;28;20416;-64